Time;durP1;ratioP1;P1;durP2;ratioP2;P2;SDS_P1;SDS_P2;PMS_P1;PMS_P2;Temp;Humidity;BMP_temperature;BMP_pressure;BME280_temperature;BME280_humidity;BME280_pressure;Samples;Min_cycle;Max_cycle;Signal;HPM_P1;HPM_P2
2021/08/12 04:37:49;;;;;;;7.18;3.63;;;24.70;96.70;;;;;;4983503;28;20054;-80
2021/08/12 04:40:29;;;;;;;5.97;3.92;;;24.60;96.70;;;;;;4956086;28;20046;-80
2021/08/12 04:43:09;;;;;;;6.57;3.40;;;24.60;96.70;;;;;;4982966;28;20058;-78
2021/08/12 04:46:00;;;;;;;10.57;3.75;;;24.60;96.70;;;;;;4975332;28;20030;-80
2021/08/12 04:48:40;;;;;;;5.68;3.67;;;24.70;96.70;;;;;;4980361;28;20050;-81
2021/08/12 04:51:13;;;;;;;7.80;4.03;;;24.70;96.70;;;;;;4982951;28;20066;-76
2021/08/12 04:53:44;;;;;;;5.45;3.40;;;24.80;96.70;;;;;;4978231;28;20058;-76
2021/08/12 04:56:13;;;;;;;9.18;3.80;;;24.90;96.70;;;;;;4962825;28;20046;-77
2021/08/12 04:58:42;;;;;;;6.90;4.10;;;25.10;96.70;;;;;;4981803;28;20062;-76
2021/08/12 05:01:12;;;;;;;6.50;3.80;;;25.10;96.70;;;;;;4967765;28;20552;-76
2021/08/12 05:03:41;;;;;;;7.05;3.90;;;25.00;96.70;;;;;;4967024;28;20057;-76
2021/08/12 05:06:11;;;;;;;5.05;3.40;;;24.90;96.70;;;;;;4951065;28;20066;-76
2021/08/12 05:08:40;;;;;;;3.97;2.90;;;25.00;96.70;;;;;;4964454;28;20058;-76
2021/08/12 05:11:10;;;;;;;6.63;3.65;;;25.00;96.70;;;;;;4969452;28;20977;-76
2021/08/12 05:13:39;;;;;;;5.43;3.42;;;25.10;96.70;;;;;;4981740;28;20150;-77
2021/08/12 05:16:08;;;;;;;6.45;3.65;;;25.10;96.70;;;;;;4974892;28;20043;-76
2021/08/12 05:18:40;;;;;;;6.75;3.35;;;25.20;96.70;;;;;;4982887;28;20038;-76
2021/08/12 05:21:09;;;;;;;5.05;3.53;;;25.10;96.70;;;;;;4966456;28;20405;-76
2021/08/12 05:23:38;;;;;;;8.20;3.75;;;25.20;96.70;;;;;;4963464;28;20049;-76
2021/08/12 05:26:07;;;;;;;7.10;3.72;;;25.30;96.70;;;;;;4974674;28;20043;-76
2021/08/12 05:28:37;;;;;;;9.90;3.58;;;25.30;96.70;;;;;;4978626;28;20097;-76
2021/08/12 05:31:05;;;;;;;5.88;3.67;;;25.30;96.70;;;;;;4973511;28;20046;-76
2021/08/12 05:33:34;;;;;;;7.03;3.63;;;25.30;96.70;;;;;;4982916;28;20077;-76
2021/08/12 05:36:04;;;;;;;6.88;3.90;;;25.20;96.70;;;;;;4981373;28;20050;-76
2021/08/12 05:38:32;;;;;;;6.93;4.10;;;25.30;96.70;;;;;;4967924;28;20440;-76
2021/08/12 05:41:02;;;;;;;10.52;4.07;;;25.30;96.70;;;;;;4983113;28;20492;-76
2021/08/12 05:43:31;;;;;;;4.30;3.72;;;25.40;96.70;;;;;;4984427;28;20042;-76
2021/08/12 05:46:04;;;;;;;7.65;3.85;;;25.40;96.70;;;;;;4966322;28;20103;-76
2021/08/12 05:48:34;;;;;;;4.45;3.50;;;25.40;96.70;;;;;;4973440;28;20161;-76
2021/08/12 05:51:02;;;;;;;8.00;4.00;;;25.50;96.70;;;;;;4958721;28;20043;-76
2021/08/12 05:53:32;;;;;;;10.90;4.05;;;25.50;96.70;;;;;;4978189;28;20061;-77
2021/08/12 05:56:02;;;;;;;7.10;4.05;;;25.50;96.70;;;;;;4981283;28;20153;-77
2021/08/12 05:58:38;;;;;;;7.90;3.78;;;25.50;96.70;;;;;;4984187;28;20050;-77
2021/08/12 06:01:08;;;;;;;7.50;3.80;;;25.50;96.70;;;;;;4978803;28;20046;-79
2021/08/12 06:03:37;;;;;;;4.38;3.70;;;25.70;96.70;;;;;;4970857;28;20051;-77
2021/08/12 06:06:06;;;;;;;7.93;4.35;;;25.70;96.70;;;;;;4985495;28;20058;-76
2021/08/12 06:08:35;;;;;;;6.18;4.15;;;25.70;96.70;;;;;;4967375;28;20065;-76
2021/08/12 06:11:04;;;;;;;10.15;4.28;;;25.60;96.70;;;;;;4983508;28;20038;-76
2021/08/12 06:13:33;;;;;;;6.38;3.85;;;25.70;96.70;;;;;;4979884;28;20039;-76
2021/08/12 06:16:06;;;;;;;6.70;3.83;;;25.70;96.70;;;;;;4993455;28;20047;-76
2021/08/12 06:18:38;;;;;;;5.78;3.67;;;25.60;96.70;;;;;;4978057;28;20054;-77
2021/08/12 06:21:07;;;;;;;8.18;4.07;;;25.70;96.70;;;;;;4959613;28;20109;-75
2021/08/12 06:23:35;;;;;;;8.20;4.38;;;25.80;96.70;;;;;;4983320;28;20068;-75
2021/08/12 06:26:04;;;;;;;9.48;4.57;;;25.80;96.70;;;;;;4992050;28;20111;-75
2021/08/12 06:28:32;;;;;;;6.68;4.38;;;25.80;96.70;;;;;;4950093;28;20554;-76
2021/08/12 06:31:02;;;;;;;5.63;3.83;;;25.80;96.70;;;;;;4971456;28;20051;-75
2021/08/12 06:33:31;;;;;;;6.30;4.15;;;25.80;96.70;;;;;;4991546;28;20038;-75
2021/08/12 06:36:01;;;;;;;7.70;4.60;;;25.80;96.70;;;;;;4975927;28;20631;-75
2021/08/12 06:38:30;;;;;;;11.45;4.45;;;25.80;96.70;;;;;;4980023;28;20039;-75
2021/08/12 06:40:58;;;;;;;6.47;3.92;;;25.90;96.70;;;;;;4981809;28;20539;-76
2021/08/12 06:43:29;;;;;;;9.25;4.40;;;26.00;96.70;;;;;;4963761;28;20060;-76
2021/08/12 06:46:01;;;;;;;6.80;3.60;;;26.20;96.70;;;;;;4974237;28;20058;-75
2021/08/12 06:48:33;;;;;;;7.28;4.88;;;26.20;96.70;;;;;;4978308;28;20047;-75
2021/08/12 06:51:04;;;;;;;13.18;4.30;;;26.20;96.70;;;;;;4982115;28;20042;-75
2021/08/12 06:53:33;;;;;;;9.50;4.88;;;26.30;96.70;;;;;;4981019;28;20504;-76
2021/08/12 06:56:03;;;;;;;9.27;4.35;;;26.30;96.70;;;;;;4973468;28;20050;-76
2021/08/12 06:58:32;;;;;;;5.72;4.03;;;26.40;96.70;;;;;;4977875;28;20050;-75
2021/08/12 07:01:01;;;;;;;8.60;4.30;;;26.40;96.70;;;;;;4978129;28;20575;-76
2021/08/12 07:03:30;;;;;;;11.32;3.92;;;26.50;96.70;;;;;;4975186;28;20560;-75
2021/08/12 07:05:59;;;;;;;7.80;4.13;;;26.60;96.70;;;;;;4967663;28;20062;-76
2021/08/12 07:08:30;;;;;;;5.68;4.20;;;26.70;96.70;;;;;;4975892;28;20085;-75
2021/08/12 07:10:59;;;;;;;6.20;4.10;;;26.90;96.70;;;;;;4969481;28;20050;-76
2021/08/12 07:13:27;;;;;;;7.47;3.53;;;26.90;96.70;;;;;;4971566;28;20159;-75
2021/08/12 07:15:55;;;;;;;9.75;4.40;;;27.00;96.70;;;;;;4964490;28;20077;-75
2021/08/12 07:18:24;;;;;;;5.45;3.83;;;27.00;96.70;;;;;;4964629;28;20694;-75
2021/08/12 07:20:52;;;;;;;6.35;4.10;;;27.10;96.70;;;;;;4975421;28;20116;-75
2021/08/12 07:23:21;;;;;;;8.77;3.47;;;27.20;96.70;;;;;;4977301;28;21300;-75
2021/08/12 07:25:51;;;;;;;4.32;3.55;;;27.30;96.70;;;;;;4974355;28;20038;-75
2021/08/12 07:28:21;;;;;;;7.55;4.00;;;27.40;96.70;;;;;;4989117;28;20146;-76
2021/08/12 07:30:49;;;;;;;6.38;3.75;;;27.40;96.70;;;;;;4982411;28;20461;-75
2021/08/12 07:33:17;;;;;;;8.85;3.80;;;27.50;96.70;;;;;;4976272;28;20390;-75
2021/08/12 07:35:46;;;;;;;7.18;4.25;;;27.60;96.70;;;;;;4975997;28;20097;-75
2021/08/12 07:38:14;;;;;;;8.50;3.90;;;27.60;96.70;;;;;;4987945;28;20397;-75
2021/08/12 07:40:43;;;;;;;5.82;4.30;;;27.70;96.70;;;;;;4961398;28;20043;-75
2021/08/12 07:43:13;;;;;;;5.65;3.97;;;27.70;96.70;;;;;;4977745;28;20047;-75
2021/08/12 07:45:42;;;;;;;7.03;3.80;;;27.80;96.70;;;;;;4972738;28;20045;-75
2021/08/12 07:48:10;;;;;;;10.63;4.20;;;27.90;96.70;;;;;;4978337;28;20078;-75
2021/08/12 07:50:38;;;;;;;6.22;3.72;;;28.10;96.70;;;;;;4981497;28;20141;-75
2021/08/12 07:53:07;;;;;;;8.00;3.70;;;28.20;96.70;;;;;;4974267;28;20038;-75
2021/08/12 07:55:35;;;;;;;10.95;4.13;;;28.30;96.70;;;;;;4972486;28;20423;-75
2021/08/12 07:58:04;;;;;;;6.00;3.53;;;28.40;96.70;;;;;;4977540;28;20532;-75
2021/08/12 08:00:34;;;;;;;5.07;3.20;;;28.40;96.70;;;;;;4980877;28;20508;-75
2021/08/12 08:03:03;;;;;;;7.65;4.22;;;28.50;96.70;;;;;;4967728;28;20074;-75
2021/08/12 08:05:32;;;;;;;4.07;3.42;;;28.60;96.70;;;;;;4980238;28;20377;-75
2021/08/12 08:08:04;;;;;;;6.20;3.08;;;28.80;96.70;;;;;;4974684;28;20054;-75
2021/08/12 08:10:32;;;;;;;8.63;4.13;;;28.90;96.70;;;;;;4978536;28;20404;-76
2021/08/12 08:13:02;;;;;;;6.28;3.47;;;29.00;96.70;;;;;;4976134;28;20047;-76
2021/08/12 08:15:31;;;;;;;11.02;3.55;;;29.00;96.70;;;;;;4974278;28;20563;-76
2021/08/12 08:18:03;;;;;;;7.63;3.20;;;29.10;96.70;;;;;;4985977;28;20070;-76
2021/08/12 08:20:31;;;;;;;8.23;3.90;;;29.20;96.70;;;;;;4983110;28;20048;-75
2021/08/12 08:23:04;;;;;;;6.88;3.25;;;29.30;96.60;;;;;;4982095;28;20543;-75
2021/08/12 08:25:33;;;;;;;5.30;3.65;;;29.40;95.70;;;;;;4975452;28;20035;-76
2021/08/12 08:28:03;;;;;;;5.75;3.65;;;29.60;95.20;;;;;;4974150;28;20046;-75
2021/08/12 08:30:33;;;;;;;5.88;3.22;;;29.60;94.80;;;;;;4980058;28;20507;-75
2021/08/12 08:33:03;;;;;;;4.45;2.90;;;29.70;94.20;;;;;;4974931;28;20511;-75
2021/08/12 08:35:32;;;;;;;7.38;2.90;;;29.90;93.50;;;;;;4975672;28;20061;-75
2021/08/12 08:38:00;;;;;;;4.60;2.85;;;30.10;91.10;;;;;;4987534;28;20480;-76
2021/08/12 08:40:29;;;;;;;4.60;2.90;;;30.30;91.30;;;;;;4975770;28;20690;-75
2021/08/12 08:42:58;;;;;;;6.70;3.10;;;30.40;89.70;;;;;;4975550;28;20051;-75
2021/08/12 08:45:29;;;;;;;5.10;3.10;;;30.60;89.60;;;;;;4960385;28;20043;-76
2021/08/12 08:48:04;;;;;;;6.20;3.08;;;30.70;89.30;;;;;;4975464;28;20046;-76
2021/08/12 08:50:34;;;;;;;6.25;2.90;;;30.80;88.90;;;;;;4961828;28;20051;-75
2021/08/12 08:53:03;;;;;;;6.05;3.05;;;30.90;88.70;;;;;;4978474;28;20441;-76
2021/08/12 08:55:32;;;;;;;5.78;2.80;;;31.00;86.80;;;;;;4982110;28;20065;-76
2021/08/12 08:58:00;;;;;;;6.07;2.60;;;31.10;85.70;;;;;;4976227;28;20105;-75
2021/08/12 09:00:29;;;;;;;6.85;2.78;;;31.20;84.90;;;;;;4976710;28;20038;-76
2021/08/12 09:02:57;;;;;;;5.07;3.00;;;31.30;84.30;;;;;;4959109;28;20069;-75
2021/08/12 09:05:28;;;;;;;5.10;2.63;;;31.50;84.50;;;;;;4983397;28;20046;-75
2021/08/12 09:07:58;;;;;;;5.00;2.72;;;31.40;84.90;;;;;;4977997;28;20610;-75
2021/08/12 09:10:28;;;;;;;7.88;2.60;;;31.40;84.90;;;;;;4985442;28;20141;-74
2021/08/12 09:12:57;;;;;;;5.32;2.83;;;31.60;84.20;;;;;;4978823;28;20578;-75
2021/08/12 09:15:25;;;;;;;5.13;2.78;;;31.60;84.00;;;;;;4978540;28;20043;-75
2021/08/12 09:17:58;;;;;;;4.32;2.65;;;31.70;82.90;;;;;;4975313;28;20038;-76
2021/08/12 09:20:32;;;;;;;6.43;3.15;;;31.80;83.30;;;;;;4977036;28;20050;-76
2021/08/12 09:23:07;;;;;;;4.07;3.00;;;31.90;83.20;;;;;;4978885;28;20038;-75
2021/08/12 09:25:43;;;;;;;4.13;3.20;;;31.90;81.90;;;;;;4979214;28;20234;-75
2021/08/12 09:28:16;;;;;;;3.75;2.60;;;32.00;81.60;;;;;;4981815;28;20306;-75
2021/08/12 09:31:02;;;;;;;4.22;2.80;;;32.10;81.40;;;;;;4983272;28;20058;-76
2021/08/12 09:33:32;;;;;;;5.60;2.92;;;32.20;79.80;;;;;;4979418;28;20043;-76
2021/08/12 09:36:04;;;;;;;5.10;2.92;;;32.20;80.30;;;;;;4971481;28;20428;-76
2021/08/12 09:38:36;;;;;;;6.57;3.28;;;32.30;79.50;;;;;;4980976;28;20500;-75
2021/08/12 09:41:37;;;;;;;5.80;2.78;;;32.30;78.20;;;;;;4975856;28;20034;-75
2021/08/12 09:44:05;;;;;;;5.68;2.70;;;32.60;79.20;;;;;;4992564;28;20047;-76
2021/08/12 09:46:35;;;;;;;4.35;3.10;;;32.60;79.80;;;;;;4982811;28;20094;-75
2021/08/12 09:49:03;;;;;;;4.43;2.78;;;32.70;80.00;;;;;;4980967;28;20046;-76
2021/08/12 09:51:34;;;;;;;3.55;3.03;;;32.70;79.20;;;;;;4980105;28;20042;-75
2021/08/12 09:54:04;;;;;;;4.05;3.08;;;32.80;79.20;;;;;;4975786;28;20046;-76
2021/08/12 09:56:32;;;;;;;4.03;3.00;;;32.80;77.60;;;;;;4979271;28;20046;-75
2021/08/12 09:59:07;;;;;;;4.28;2.90;;;33.00;77.40;;;;;;4979810;28;20049;-75
2021/08/12 10:01:37;;;;;;;5.20;2.70;;;33.10;76.10;;;;;;4962436;28;20045;-76
2021/08/12 10:04:24;;;;;;;5.35;2.70;;;33.20;75.00;;;;;;4966636;28;20096;-76
2021/08/12 10:06:54;;;;;;;4.43;3.50;;;33.30;75.90;;;;;;4980041;28;20200;-75
2021/08/12 10:09:22;;;;;;;4.88;2.75;;;33.30;75.10;;;;;;4973601;28;20047;-75
2021/08/12 10:11:51;;;;;;;4.53;2.85;;;33.40;76.00;;;;;;4981158;28;20056;-75
2021/08/12 10:14:19;;;;;;;4.07;2.97;;;33.40;75.90;;;;;;4975686;28;20035;-76
2021/08/12 10:16:47;;;;;;;3.63;2.70;;;33.60;75.20;;;;;;4983691;28;20137;-75
2021/08/12 10:19:16;;;;;;;5.25;2.60;;;33.60;74.80;;;;;;4976960;28;21861;-75
2021/08/12 10:21:45;;;;;;;5.53;2.60;;;33.60;75.50;;;;;;4980539;28;20147;-75
2021/08/12 10:24:15;;;;;;;4.45;3.25;;;33.70;75.40;;;;;;4971565;28;20155;-75
2021/08/12 10:26:46;;;;;;;5.10;2.85;;;33.80;74.50;;;;;;4989288;28;20039;-76
2021/08/12 10:29:17;;;;;;;5.03;2.65;;;33.90;74.10;;;;;;4974198;28;20054;-75
2021/08/12 10:31:48;;;;;;;5.53;2.60;;;34.10;73.70;;;;;;4976780;28;20061;-75
2021/08/12 10:34:16;;;;;;;4.60;2.80;;;34.40;72.30;;;;;;4973465;28;20599;-75
2021/08/12 10:36:45;;;;;;;4.68;2.80;;;34.50;72.50;;;;;;4957709;28;20596;-76
2021/08/12 10:39:19;;;;;;;5.93;2.80;;;34.50;71.60;;;;;;4977553;28;20505;-76
2021/08/12 10:41:48;;;;;;;3.55;2.78;;;34.50;72.80;;;;;;4974724;28;20602;-75
2021/08/12 10:44:20;;;;;;;4.35;2.72;;;34.60;72.40;;;;;;4977350;28;20085;-75
2021/08/12 10:46:48;;;;;;;5.82;3.40;;;34.70;72.00;;;;;;4976403;28;20058;-76
2021/08/12 10:49:25;;;;;;;8.23;2.95;;;34.80;71.50;;;;;;4973771;28;20097;-76
2021/08/12 10:52:01;;;;;;;4.60;2.72;;;34.90;71.20;;;;;;4975049;28;20086;-76
2021/08/12 10:54:32;;;;;;;2.85;2.33;;;34.90;70.40;;;;;;4977601;28;20046;-75
2021/08/12 10:57:20;;;;;;;4.63;2.80;;;35.10;70.10;;;;;;4981585;28;20125;-75
2021/08/12 10:59:50;;;;;;;4.70;2.83;;;35.60;70.60;;;;;;4981199;28;20050;-76
2021/08/12 11:02:41;;;;;;;4.57;2.83;;;35.60;68.90;;;;;;4972879;28;20038;-76
2021/08/12 11:05:10;;;;;;;4.47;2.40;;;35.70;69.80;;;;;;4978620;28;20487;-76
2021/08/12 11:07:51;;;;;;;4.20;3.15;;;35.80;68.70;;;;;;4970829;28;20145;-75
2021/08/12 11:10:23;;;;;;;4.47;2.55;;;35.60;68.40;;;;;;4980275;28;20062;-75
2021/08/12 11:13:09;;;;;;;2.85;2.50;;;35.70;68.00;;;;;;4960522;28;20379;-76
2021/08/12 11:15:57;;;;;;;5.45;3.22;;;35.90;67.90;;;;;;4977168;28;20092;-76
2021/08/12 11:18:44;;;;;;;4.00;2.30;;;36.00;66.60;;;;;;4966853;28;20526;-76
2021/08/12 11:21:39;;;;;;;5.90;2.75;;;36.00;65.60;;;;;;4967497;28;20071;-76
2021/08/12 11:24:08;;;;;;;4.20;2.35;;;36.00;66.00;;;;;;4963469;28;20050;-76
2021/08/12 11:27:04;;;;;;;3.38;2.60;;;36.10;66.10;;;;;;4976721;28;20042;-75
2021/08/12 11:29:36;;;;;;;2.85;2.65;;;36.30;66.80;;;;;;4980306;28;20046;-76
2021/08/12 11:32:13;;;;;;;2.38;2.17;;;36.70;66.60;;;;;;4982538;28;20066;-76
2021/08/12 11:34:46;;;;;;;3.65;2.72;;;36.90;66.50;;;;;;4980769;28;20065;-76
2021/08/12 11:37:15;;;;;;;3.92;2.38;;;36.80;65.90;;;;;;4981611;28;20046;-76
2021/08/12 11:39:52;;;;;;;3.10;2.78;;;36.80;66.30;;;;;;4977255;28;20042;-76
2021/08/12 11:42:25;;;;;;;5.10;2.85;;;36.90;66.20;;;;;;4977841;28;20044;-76
2021/08/12 11:44:56;;;;;;;4.60;2.95;;;36.90;65.40;;;;;;4980751;28;20038;-76
2021/08/12 11:47:25;;;;;;;3.80;3.00;;;37.10;65.10;;;;;;4978241;28;20560;-76
2021/08/12 11:49:54;;;;;;;4.72;2.58;;;37.00;64.80;;;;;;4972380;28;20034;-76
2021/08/12 11:52:26;;;;;;;3.60;2.50;;;36.90;64.90;;;;;;4979876;28;20542;-76
2021/08/12 11:55:00;;;;;;;4.90;2.97;;;37.00;65.30;;;;;;4971550;28;20046;-76
2021/08/12 11:57:41;;;;;;;4.68;2.88;;;37.10;65.20;;;;;;4975467;28;20045;-76
2021/08/12 12:00:12;;;;;;;3.90;2.33;;;37.10;64.90;;;;;;4984665;28;20047;-76
2021/08/12 12:02:52;;;;;;;4.28;2.75;;;37.30;64.60;;;;;;4984500;28;20047;-76
2021/08/12 12:05:22;;;;;;;4.55;3.00;;;37.70;63.70;;;;;;4975328;28;20034;-76
2021/08/12 12:07:52;;;;;;;4.72;2.75;;;37.80;63.40;;;;;;4974081;28;20051;-76
2021/08/12 12:10:32;;;;;;;2.92;2.45;;;37.70;62.50;;;;;;4975390;28;20077;-76
2021/08/12 12:13:13;;;;;;;4.70;2.53;;;37.90;63.30;;;;;;4973523;28;20049;-76
2021/08/12 12:15:43;;;;;;;4.45;2.90;;;38.00;62.40;;;;;;4977835;28;20061;-77
2021/08/12 12:18:13;;;;;;;3.55;2.60;;;38.00;62.70;;;;;;4983916;28;20038;-76
2021/08/12 12:20:45;;;;;;;4.57;3.00;;;38.20;63.60;;;;;;4982470;28;20050;-76
2021/08/12 12:23:23;;;;;;;4.35;2.70;;;38.20;63.40;;;;;;4981020;28;20062;-77
2021/08/12 12:25:52;;;;;;;5.68;2.85;;;38.00;63.00;;;;;;4984433;28;20034;-76
2021/08/12 12:28:22;;;;;;;4.78;3.22;;;38.00;61.90;;;;;;4979875;28;20142;-76
2021/08/12 12:30:50;;;;;;;4.53;2.40;;;38.10;63.30;;;;;;4980552;28;20384;-77
2021/08/12 12:33:22;;;;;;;5.15;3.10;;;38.20;62.50;;;;;;4973439;28;20042;-76
2021/08/12 12:35:51;;;;;;;3.33;2.70;;;38.20;61.60;;;;;;4982204;28;20062;-77
2021/08/12 12:38:23;;;;;;;4.00;2.63;;;38.30;62.50;;;;;;4972560;28;20042;-76
2021/08/12 12:40:54;;;;;;;5.55;2.72;;;38.50;61.90;;;;;;4977213;28;20046;-76
2021/08/12 12:43:29;;;;;;;4.82;2.90;;;38.30;61.40;;;;;;4973539;28;20517;-75
2021/08/12 12:45:57;;;;;;;6.20;2.80;;;38.30;61.30;;;;;;4986872;28;20041;-76
2021/08/12 12:48:31;;;;;;;2.90;2.65;;;38.40;62.30;;;;;;4987580;28;20070;-76
2021/08/12 12:51:01;;;;;;;4.97;2.50;;;38.40;61.80;;;;;;4993549;28;20610;-76
2021/08/12 12:53:32;;;;;;;6.82;2.65;;;38.60;62.30;;;;;;4985020;28;20062;-76
2021/08/12 12:56:02;;;;;;;9.85;3.10;;;38.70;62.30;;;;;;4989661;28;20045;-75
2021/08/12 12:58:37;;;;;;;4.13;2.88;;;38.70;62.80;;;;;;4986961;28;20103;-76
2021/08/12 13:01:07;;;;;;;5.85;3.00;;;38.80;62.10;;;;;;4983856;28;20066;-76
2021/08/12 13:03:38;;;;;;;4.72;2.83;;;38.70;61.70;;;;;;4974697;28;20042;-76
2021/08/12 13:06:09;;;;;;;4.05;2.88;;;38.60;61.90;;;;;;4978714;28;20218;-77
2021/08/12 13:08:43;;;;;;;3.47;2.83;;;38.60;62.20;;;;;;4976067;28;20042;-76
2021/08/12 13:11:16;;;;;;;5.03;2.80;;;38.60;62.10;;;;;;4981685;28;20066;-76
2021/08/12 13:13:47;;;;;;;5.05;2.92;;;38.60;62.60;;;;;;4978521;28;20069;-76
2021/08/12 13:16:17;;;;;;;4.60;2.78;;;38.60;62.70;;;;;;4985356;28;20069;-76
2021/08/12 13:18:57;;;;;;;4.65;3.20;;;38.60;62.50;;;;;;4985123;28;20117;-76
2021/08/12 13:21:35;;;;;;;6.97;2.67;;;38.60;62.70;;;;;;4976247;28;20050;-76
2021/08/12 13:24:07;;;;;;;6.50;2.83;;;38.70;63.10;;;;;;4986065;28;20042;-77
2021/08/12 13:26:38;;;;;;;4.85;2.90;;;38.80;62.70;;;;;;4975796;28;20501;-77
2021/08/12 13:29:13;;;;;;;5.47;2.85;;;39.00;62.30;;;;;;4980755;28;20057;-76
2021/08/12 13:31:44;;;;;;;6.75;2.30;;;39.00;62.80;;;;;;4958634;28;20046;-76
2021/08/12 13:34:15;;;;;;;5.63;2.75;;;39.20;63.00;;;;;;4985721;28;20066;-76
2021/08/12 13:36:44;;;;;;;6.55;2.80;;;39.30;61.30;;;;;;4979218;28;20058;-78
2021/08/12 13:39:13;;;;;;;4.82;2.90;;;39.50;62.00;;;;;;4980233;28;20046;-81
2021/08/12 13:41:51;;;;;;;7.15;3.55;;;39.80;62.00;;;;;;4962846;28;20038;-82
2021/08/12 13:44:23;;;;;;;3.90;2.92;;;39.90;60.80;;;;;;4976513;28;20108;-77
2021/08/12 13:46:53;;;;;;;3.97;2.50;;;40.00;60.70;;;;;;4981496;28;20602;-77
2021/08/12 13:49:22;;;;;;;3.63;2.50;;;40.00;58.60;;;;;;4974997;28;20074;-77
2021/08/12 13:51:51;;;;;;;4.10;2.90;;;40.10;58.20;;;;;;4975968;28;20724;-76
2021/08/12 13:54:20;;;;;;;3.92;2.80;;;40.20;58.10;;;;;;4976338;28;20046;-77
2021/08/12 13:56:49;;;;;;;4.53;2.60;;;40.40;59.30;;;;;;4968509;28;20073;-78
2021/08/12 13:59:21;;;;;;;4.90;2.88;;;40.50;59.50;;;;;;4979921;28;20500;-78
2021/08/12 14:01:51;;;;;;;4.72;2.60;;;40.60;59.50;;;;;;4985880;28;20042;-80
2021/08/12 14:04:20;;;;;;;5.53;2.85;;;40.60;59.00;;;;;;4984139;28;20420;-81
2021/08/12 14:06:49;;;;;;;6.90;2.92;;;40.80;59.40;;;;;;4985732;28;20038;-83
2021/08/12 14:09:18;;;;;;;7.25;2.97;;;41.00;59.10;;;;;;4993316;28;20057;-80
2021/08/12 14:11:47;;;;;;;5.38;2.83;;;41.10;59.70;;;;;;4979676;28;20047;-80
2021/08/12 14:14:17;;;;;;;6.22;3.10;;;41.20;59.50;;;;;;4976106;28;20042;-80
2021/08/12 14:16:47;;;;;;;5.63;2.78;;;41.20;59.40;;;;;;4980403;28;20105;-82
2021/08/12 14:19:16;;;;;;;4.22;3.03;;;41.30;58.80;;;;;;4992388;28;20091;-79
2021/08/12 14:21:45;;;;;;;5.25;3.00;;;41.50;58.50;;;;;;4988411;28;20049;-79
2021/08/12 14:24:14;;;;;;;5.47;3.05;;;41.30;58.50;;;;;;4988734;28;20702;-78
2021/08/12 14:26:43;;;;;;;4.95;2.85;;;41.30;58.40;;;;;;4984254;28;20393;-79
2021/08/12 14:29:12;;;;;;;4.00;3.05;;;41.80;59.20;;;;;;4989508;28;20046;-78
2021/08/12 14:31:41;;;;;;;5.97;3.13;;;42.00;59.00;;;;;;4993172;28;20122;-78
2021/08/12 14:34:13;;;;;;;5.05;3.17;;;41.70;59.50;;;;;;4987667;28;20452;-78
2021/08/12 14:36:42;;;;;;;6.20;3.08;;;41.50;60.10;;;;;;4993031;28;20084;-77
2021/08/12 14:39:12;;;;;;;4.95;3.47;;;41.50;59.60;;;;;;4984275;28;20046;-78
2021/08/12 14:41:42;;;;;;;7.93;3.30;;;41.60;61.20;;;;;;4980042;28;20145;-78
2021/08/12 14:44:13;;;;;;;4.18;3.35;;;41.50;62.10;;;;;;4978110;28;20042;-78
2021/08/12 14:46:42;;;;;;;7.03;3.88;;;41.60;61.40;;;;;;4975976;28;20067;-78
2021/08/12 14:49:12;;;;;;;6.95;3.35;;;41.50;62.60;;;;;;4990339;28;20046;-78
2021/08/12 14:51:41;;;;;;;7.45;3.70;;;41.30;63.10;;;;;;4976716;28;20073;-78
2021/08/12 14:54:09;;;;;;;5.50;3.47;;;41.40;63.00;;;;;;4971933;28;20042;-78
2021/08/12 14:56:38;;;;;;;4.85;3.38;;;41.10;63.10;;;;;;4974440;28;20365;-78
2021/08/12 14:59:07;;;;;;;4.25;3.20;;;41.10;63.60;;;;;;4978357;28;20049;-77
2021/08/12 15:01:36;;;;;;;9.55;3.53;;;41.20;63.80;;;;;;4980057;28;20055;-79
2021/08/12 15:04:05;;;;;;;8.18;3.50;;;41.30;62.80;;;;;;4977465;28;20116;-78
2021/08/12 15:06:35;;;;;;;7.75;2.97;;;41.20;62.90;;;;;;4977698;28;20440;-78
2021/08/12 15:09:04;;;;;;;6.88;3.53;;;41.30;62.80;;;;;;4980313;28;20053;-77
2021/08/12 15:11:33;;;;;;;6.93;3.55;;;41.10;62.80;;;;;;4967818;28;20054;-78
2021/08/12 15:14:02;;;;;;;5.43;3.17;;;41.30;62.80;;;;;;4965427;28;20050;-77
2021/08/12 15:16:30;;;;;;;5.32;3.22;;;41.30;62.30;;;;;;4982386;28;20037;-77
2021/08/12 15:18:59;;;;;;;6.93;3.00;;;41.30;61.00;;;;;;4977484;28;20270;-77
2021/08/12 15:21:29;;;;;;;5.50;2.70;;;41.20;61.00;;;;;;4976958;28;20041;-77
2021/08/12 15:24:00;;;;;;;6.00;2.67;;;41.00;60.40;;;;;;4979445;28;20046;-78
2021/08/12 15:26:29;;;;;;;5.13;3.10;;;41.10;60.40;;;;;;4978631;28;20436;-77
2021/08/12 15:28:57;;;;;;;4.25;3.15;;;40.90;59.80;;;;;;4979272;28;20042;-79
2021/08/12 15:31:26;;;;;;;4.80;2.33;;;41.00;59.30;;;;;;4952687;28;20050;-77
2021/08/12 15:33:54;;;;;;;4.03;2.90;;;41.00;59.00;;;;;;4974661;28;20556;-78
2021/08/12 15:36:23;;;;;;;5.45;2.85;;;40.90;58.90;;;;;;4964695;28;20137;-78
2021/08/12 15:38:51;;;;;;;6.10;2.72;;;40.70;58.50;;;;;;4998684;28;20412;-78
2021/08/12 15:41:22;;;;;;;4.28;3.13;;;40.70;57.80;;;;;;4979926;28;20642;-79
2021/08/12 15:43:50;;;;;;;3.53;2.45;;;40.60;57.70;;;;;;4976276;28;20145;-78
2021/08/12 15:46:21;;;;;;;4.70;2.80;;;40.60;57.40;;;;;;4979186;28;20133;-78
2021/08/12 15:48:50;;;;;;;5.95;2.53;;;40.70;57.80;;;;;;4975055;28;20050;-77
2021/08/12 15:51:18;;;;;;;5.50;2.75;;;40.70;57.50;;;;;;4973853;28;20066;-77
2021/08/12 15:53:47;;;;;;;4.22;2.47;;;40.70;57.30;;;;;;4980879;28;20090;-77
2021/08/12 15:56:15;;;;;;;6.40;2.92;;;40.70;56.90;;;;;;4982890;28;20485;-77
2021/08/12 15:58:45;;;;;;;4.15;2.15;;;40.80;56.80;;;;;;4977994;28;20473;-77
2021/08/12 16:01:14;;;;;;;4.47;2.28;;;40.60;56.10;;;;;;4975264;28;20586;-81
2021/08/12 16:03:43;;;;;;;3.78;2.40;;;40.60;57.20;;;;;;4975289;28;20038;-77
2021/08/12 16:06:11;;;;;;;8.05;2.83;;;40.80;57.60;;;;;;4980663;28;20051;-78
2021/08/12 16:08:40;;;;;;;3.75;2.40;;;40.60;58.00;;;;;;4977226;28;20047;-77
2021/08/12 16:11:08;;;;;;;10.45;2.88;;;40.40;58.90;;;;;;4984246;28;20060;-77
2021/08/12 16:13:37;;;;;;;6.38;2.33;;;40.60;58.70;;;;;;4966895;28;20472;-78
2021/08/12 16:16:07;;;;;;;4.32;2.58;;;40.80;58.80;;;;;;4979178;28;20109;-77
2021/08/12 16:18:36;;;;;;;4.22;2.63;;;40.90;59.40;;;;;;4972571;28;20046;-77
2021/08/12 16:21:19;;;;;;;5.60;2.30;;;41.00;59.80;;;;;;4980446;28;20141;-78
2021/08/12 16:23:48;;;;;;;3.53;2.83;;;41.00;59.50;;;;;;4983642;28;20436;-77
2021/08/12 16:26:17;;;;;;;8.27;2.85;;;41.30;59.50;;;;;;4977342;28;20325;-79
2021/08/12 16:28:46;;;;;;;5.40;2.50;;;41.20;59.70;;;;;;4980649;28;20674;-77
2021/08/12 16:31:20;;;;;;;3.10;2.30;;;41.00;59.70;;;;;;4974787;28;20552;-78
2021/08/12 16:33:49;;;;;;;4.53;2.83;;;41.10;59.30;;;;;;4978192;28;20046;-77
2021/08/12 16:36:18;;;;;;;5.90;2.72;;;41.00;59.30;;;;;;4982299;28;20051;-78
2021/08/12 16:38:46;;;;;;;5.47;2.45;;;41.20;59.40;;;;;;4985604;28;20047;-78
2021/08/12 16:41:15;;;;;;;3.10;2.47;;;41.40;59.50;;;;;;4979606;28;20523;-78
2021/08/12 16:43:43;;;;;;;4.82;2.63;;;41.70;59.50;;;;;;4984536;28;20050;-78
2021/08/12 16:46:13;;;;;;;6.28;2.55;;;41.30;59.80;;;;;;4985986;28;20058;-77
2021/08/12 16:48:43;;;;;;;8.80;2.65;;;40.50;60.70;;;;;;4984327;28;20697;-77
2021/08/12 16:51:11;;;;;;;7.35;2.50;;;40.40;61.10;;;;;;4983585;28;20632;-77
2021/08/12 16:53:40;;;;;;;5.32;2.35;;;40.40;61.50;;;;;;4982836;28;20129;-77
2021/08/12 16:56:08;;;;;;;6.38;2.80;;;40.30;62.10;;;;;;4963650;28;20098;-77
2021/08/12 16:58:36;;;;;;;4.65;2.67;;;40.30;62.20;;;;;;4977605;28;20552;-78
2021/08/12 17:01:05;;;;;;;5.88;2.83;;;40.20;61.80;;;;;;4981665;28;20572;-77
2021/08/12 17:03:35;;;;;;;4.63;2.88;;;40.50;61.80;;;;;;4985263;28;20077;-77
2021/08/12 17:06:20;;;;;;;7.28;2.42;;;40.40;61.80;;;;;;4978762;28;20049;-77
2021/08/12 17:08:53;;;;;;;7.57;2.67;;;40.20;61.70;;;;;;4983372;28;20047;-78
2021/08/12 17:11:22;;;;;;;4.95;2.85;;;40.00;62.10;;;;;;4974793;28;20042;-77
2021/08/12 17:13:50;;;;;;;4.45;2.65;;;40.20;62.70;;;;;;4982400;28;20057;-78
2021/08/12 17:16:18;;;;;;;4.50;3.10;;;40.00;64.00;;;;;;4975466;28;20046;-77
2021/08/12 17:18:47;;;;;;;3.58;2.95;;;39.10;65.60;;;;;;4983217;28;20042;-77
2021/08/12 17:21:16;;;;;;;6.88;3.20;;;39.30;65.70;;;;;;4985947;28;20563;-78
2021/08/12 17:23:46;;;;;;;4.15;2.90;;;39.40;65.80;;;;;;4985659;28;20047;-77
2021/08/12 17:26:14;;;;;;;4.47;2.70;;;39.00;66.00;;;;;;4967567;28;20082;-77
2021/08/12 17:28:43;;;;;;;6.35;3.17;;;38.30;67.40;;;;;;4991169;28;20471;-78
2021/08/12 17:31:12;;;;;;;7.20;3.65;;;37.40;69.20;;;;;;4982511;28;20050;-78
2021/08/12 17:33:40;;;;;;;6.63;3.30;;;36.80;70.60;;;;;;4967407;28;20092;-78
2021/08/12 17:36:10;;;;;;;5.78;3.65;;;36.30;71.90;;;;;;4977131;28;20430;-77
2021/08/12 17:38:38;;;;;;;9.50;3.45;;;36.10;72.70;;;;;;4982057;28;20054;-77
2021/08/12 17:41:12;;;;;;;3.55;3.08;;;35.80;73.80;;;;;;4978360;28;20030;-77